sensor_id;sensor_type;location;lat;lon;timestamp;P1;durP1;ratioP1;P2;durP2;ratioP2
22425;SDS011;11380;50.822;15.790;2023-06-26T00:03:07;67.42;;;55.63;;
22425;SDS011;11380;50.822;15.790;2023-06-26T00:08:18;67.77;;;55.43;;
22425;SDS011;11380;50.822;15.790;2023-06-26T00:13:26;66.20;;;55.15;;
22425;SDS011;11380;50.822;15.790;2023-06-26T00:18:33;67.20;;;55.83;;
22425;SDS011;11380;50.822;15.790;2023-06-26T00:23:42;67.53;;;55.33;;
22425;SDS011;11380;50.822;15.790;2023-06-26T00:28:49;65.27;;;54.70;;
22425;SDS011;11380;50.822;15.790;2023-06-26T00:33:57;68.47;;;54.77;;
22425;SDS011;11380;50.822;15.790;2023-06-26T00:39:04;66.23;;;54.47;;
22425;SDS011;11380;50.822;15.790;2023-06-26T00:44:11;64.20;;;53.87;;
22425;SDS011;11380;50.822;15.790;2023-06-26T00:49:18;65.12;;;54.25;;
22425;SDS011;11380;50.822;15.790;2023-06-26T00:54:25;66.85;;;54.70;;
22425;SDS011;11380;50.822;15.790;2023-06-26T00:59:32;65.10;;;53.93;;
22425;SDS011;11380;50.822;15.790;2023-06-26T01:04:40;65.13;;;54.90;;
22425;SDS011;11380;50.822;15.790;2023-06-26T01:09:49;66.23;;;53.97;;
22425;SDS011;11380;50.822;15.790;2023-06-26T01:14:56;67.20;;;54.23;;
22425;SDS011;11380;50.822;15.790;2023-06-26T01:20:04;66.33;;;54.27;;
22425;SDS011;11380;50.822;15.790;2023-06-26T01:25:35;69.26;;;55.00;;
22425;SDS011;11380;50.822;15.790;2023-06-26T01:30:30;64.43;;;54.30;;
22425;SDS011;11380;50.822;15.790;2023-06-26T01:35:39;66.87;;;53.93;;
22425;SDS011;11380;50.822;15.790;2023-06-26T01:40:46;64.73;;;54.00;;
22425;SDS011;11380;50.822;15.790;2023-06-26T01:45:54;66.10;;;54.07;;
22425;SDS011;11380;50.822;15.790;2023-06-26T01:51:11;63.24;;;53.62;;
22425;SDS011;11380;50.822;15.790;2023-06-26T01:56:20;65.63;;;54.37;;
22425;SDS011;11380;50.822;15.790;2023-06-26T02:01:29;64.73;;;54.30;;
22425;SDS011;11380;50.822;15.790;2023-06-26T02:06:37;66.73;;;53.93;;
22425;SDS011;11380;50.822;15.790;2023-06-26T02:11:44;65.83;;;54.27;;
22425;SDS011;11380;50.822;15.790;2023-06-26T02:16:51;64.47;;;53.53;;
22425;SDS011;11380;50.822;15.790;2023-06-26T02:22:08;65.67;;;54.93;;
22425;SDS011;11380;50.822;15.790;2023-06-26T02:27:16;64.55;;;53.95;;
22425;SDS011;11380;50.822;15.790;2023-06-26T02:32:23;65.25;;;54.20;;
22425;SDS011;11380;50.822;15.790;2023-06-26T02:37:30;66.63;;;54.40;;
22425;SDS011;11380;50.822;15.790;2023-06-26T02:42:37;64.63;;;53.97;;
22425;SDS011;11380;50.822;15.790;2023-06-26T02:47:44;67.73;;;54.17;;
22425;SDS011;11380;50.822;15.790;2023-06-26T02:52:52;67.57;;;53.53;;
22425;SDS011;11380;50.822;15.790;2023-06-26T02:57:59;66.90;;;54.20;;
22425;SDS011;11380;50.822;15.790;2023-06-26T03:03:06;64.50;;;53.63;;
22425;SDS011;11380;50.822;15.790;2023-06-26T03:08:13;64.23;;;53.50;;
22425;SDS011;11380;50.822;15.790;2023-06-26T03:13:20;66.60;;;53.60;;
22425;SDS011;11380;50.822;15.790;2023-06-26T03:18:27;64.63;;;53.30;;
22425;SDS011;11380;50.822;15.790;2023-06-26T03:23:34;65.07;;;53.50;;
22425;SDS011;11380;50.822;15.790;2023-06-26T03:28:41;64.33;;;54.10;;
22425;SDS011;11380;50.822;15.790;2023-06-26T03:33:48;65.90;;;54.47;;
22425;SDS011;11380;50.822;15.790;2023-06-26T03:38:55;66.63;;;54.27;;
22425;SDS011;11380;50.822;15.790;2023-06-26T03:44:03;66.80;;;54.53;;
22425;SDS011;11380;50.822;15.790;2023-06-26T03:49:10;65.47;;;54.63;;
22425;SDS011;11380;50.822;15.790;2023-06-26T03:54:18;66.87;;;54.63;;
22425;SDS011;11380;50.822;15.790;2023-06-26T03:59:24;67.80;;;54.93;;
22425;SDS011;11380;50.822;15.790;2023-06-26T04:04:31;68.77;;;55.40;;
22425;SDS011;11380;50.822;15.790;2023-06-26T04:09:38;67.77;;;55.50;;
22425;SDS011;11380;50.822;15.790;2023-06-26T04:14:45;67.30;;;55.80;;
22425;SDS011;11380;50.822;15.790;2023-06-26T04:19:51;67.27;;;55.47;;
22425;SDS011;11380;50.822;15.790;2023-06-26T04:25:05;70.62;;;56.00;;
22425;SDS011;11380;50.822;15.790;2023-06-26T04:30:10;69.40;;;55.97;;
22425;SDS011;11380;50.822;15.790;2023-06-26T04:35:18;72.47;;;56.97;;
22425;SDS011;11380;50.822;15.790;2023-06-26T04:40:25;68.53;;;55.47;;
22425;SDS011;11380;50.822;15.790;2023-06-26T04:45:32;70.78;;;55.90;;
22425;SDS011;11380;50.822;15.790;2023-06-26T04:50:40;69.03;;;55.70;;
22425;SDS011;11380;50.822;15.790;2023-06-26T04:55:53;70.15;;;56.08;;
22425;SDS011;11380;50.822;15.790;2023-06-26T05:00:58;71.60;;;56.23;;
22425;SDS011;11380;50.822;15.790;2023-06-26T05:06:07;71.17;;;57.03;;
22425;SDS011;11380;50.822;15.790;2023-06-26T05:11:13;73.07;;;56.80;;
22425;SDS011;11380;50.822;15.790;2023-06-26T05:16:20;71.20;;;57.10;;
22425;SDS011;11380;50.822;15.790;2023-06-26T05:21:28;72.93;;;56.40;;
22425;SDS011;11380;50.822;15.790;2023-06-26T05:26:36;72.15;;;56.90;;
22425;SDS011;11380;50.822;15.790;2023-06-26T05:31:44;71.55;;;56.55;;
22425;SDS011;11380;50.822;15.790;2023-06-26T05:36:53;72.63;;;56.90;;
22425;SDS011;11380;50.822;15.790;2023-06-26T05:42:04;72.27;;;57.17;;
22425;SDS011;11380;50.822;15.790;2023-06-26T05:47:12;73.30;;;57.23;;
22425;SDS011;11380;50.822;15.790;2023-06-26T05:52:19;71.07;;;56.63;;
22425;SDS011;11380;50.822;15.790;2023-06-26T05:57:27;77.17;;;56.83;;
22425;SDS011;11380;50.822;15.790;2023-06-26T06:02:36;72.95;;;56.88;;
22425;SDS011;11380;50.822;15.790;2023-06-26T06:07:43;72.78;;;56.73;;
22425;SDS011;11380;50.822;15.790;2023-06-26T06:12:50;73.33;;;56.97;;
22425;SDS011;11380;50.822;15.790;2023-06-26T06:17:59;71.43;;;56.13;;
22425;SDS011;11380;50.822;15.790;2023-06-26T06:23:06;74.13;;;57.30;;
22425;SDS011;11380;50.822;15.790;2023-06-26T06:28:14;74.13;;;57.33;;
22425;SDS011;11380;50.822;15.790;2023-06-26T06:33:22;80.40;;;58.40;;
22425;SDS011;11380;50.822;15.790;2023-06-26T06:38:29;76.90;;;57.80;;
22425;SDS011;11380;50.822;15.790;2023-06-26T06:43:37;75.37;;;58.27;;
22425;SDS011;11380;50.822;15.790;2023-06-26T06:48:44;75.23;;;57.83;;
22425;SDS011;11380;50.822;15.790;2023-06-26T06:53:51;75.33;;;57.97;;
22425;SDS011;11380;50.822;15.790;2023-06-26T06:58:59;73.60;;;57.33;;
22425;SDS011;11380;50.822;15.790;2023-06-26T07:04:07;74.23;;;57.47;;
22425;SDS011;11380;50.822;15.790;2023-06-26T07:09:17;74.03;;;57.10;;
22425;SDS011;11380;50.822;15.790;2023-06-26T07:14:25;75.20;;;58.10;;
22425;SDS011;11380;50.822;15.790;2023-06-26T07:19:32;75.00;;;57.97;;
22425;SDS011;11380;50.822;15.790;2023-06-26T07:24:39;75.20;;;57.90;;
22425;SDS011;11380;50.822;15.790;2023-06-26T07:29:46;75.65;;;58.20;;
22425;SDS011;11380;50.822;15.790;2023-06-26T07:34:52;74.93;;;58.17;;
22425;SDS011;11380;50.822;15.790;2023-06-26T07:40:00;75.63;;;57.80;;
22425;SDS011;11380;50.822;15.790;2023-06-26T07:45:08;75.87;;;57.57;;
22425;SDS011;11380;50.822;15.790;2023-06-26T07:50:16;76.15;;;58.33;;
22425;SDS011;11380;50.822;15.790;2023-06-26T07:55:26;74.92;;;57.25;;
22425;SDS011;11380;50.822;15.790;2023-06-26T08:00:33;75.57;;;57.98;;
22425;SDS011;11380;50.822;15.790;2023-06-26T08:05:40;75.30;;;58.15;;
22425;SDS011;11380;50.822;15.790;2023-06-26T08:10:49;76.90;;;58.70;;
22425;SDS011;11380;50.822;15.790;2023-06-26T08:15:56;80.57;;;58.47;;
22425;SDS011;11380;50.822;15.790;2023-06-26T08:21:03;78.07;;;58.83;;
22425;SDS011;11380;50.822;15.790;2023-06-26T08:26:10;78.20;;;59.17;;
22425;SDS011;11380;50.822;15.790;2023-06-26T08:31:21;78.75;;;59.23;;
22425;SDS011;11380;50.822;15.790;2023-06-26T08:36:31;77.37;;;58.80;;
22425;SDS011;11380;50.822;15.790;2023-06-26T08:41:38;82.82;;;59.48;;
22425;SDS011;11380;50.822;15.790;2023-06-26T08:46:46;78.40;;;59.37;;
22425;SDS011;11380;50.822;15.790;2023-06-26T08:51:59;79.03;;;59.90;;
22425;SDS011;11380;50.822;15.790;2023-06-26T08:57:09;79.95;;;60.05;;
22425;SDS011;11380;50.822;15.790;2023-06-26T09:12:36;77.87;;;59.42;;
22425;SDS011;11380;50.822;15.790;2023-06-26T09:17:44;78.87;;;59.77;;
22425;SDS011;11380;50.822;15.790;2023-06-26T09:22:53;78.80;;;60.27;;
22425;SDS011;11380;50.822;15.790;2023-06-26T09:28:01;79.82;;;59.67;;
22425;SDS011;11380;50.822;15.790;2023-06-26T09:33:15;83.40;;;59.83;;
22425;SDS011;11380;50.822;15.790;2023-06-26T09:38:24;78.55;;;60.00;;
22425;SDS011;11380;50.822;15.790;2023-06-26T09:43:32;80.60;;;59.98;;
22425;SDS011;11380;50.822;15.790;2023-06-26T09:48:43;79.37;;;59.97;;
22425;SDS011;11380;50.822;15.790;2023-06-26T09:53:50;78.17;;;59.63;;
22425;SDS011;11380;50.822;15.790;2023-06-26T09:59:01;83.07;;;60.57;;
22425;SDS011;11380;50.822;15.790;2023-06-26T10:04:10;79.70;;;60.33;;
22425;SDS011;11380;50.822;15.790;2023-06-26T10:09:19;79.33;;;60.17;;
22425;SDS011;11380;50.822;15.790;2023-06-26T10:14:31;81.53;;;60.40;;
22425;SDS011;11380;50.822;15.790;2023-06-26T10:19:43;79.30;;;60.90;;
22425;SDS011;11380;50.822;15.790;2023-06-26T10:24:51;80.63;;;60.70;;
22425;SDS011;11380;50.822;15.790;2023-06-26T10:30:02;81.80;;;60.90;;
22425;SDS011;11380;50.822;15.790;2023-06-26T10:35:12;79.30;;;60.57;;
22425;SDS011;11380;50.822;15.790;2023-06-26T10:40:25;78.87;;;59.97;;
22425;SDS011;11380;50.822;15.790;2023-06-26T10:45:34;79.15;;;60.28;;
22425;SDS011;11380;50.822;15.790;2023-06-26T10:50:42;80.03;;;60.47;;
22425;SDS011;11380;50.822;15.790;2023-06-26T10:56:00;85.20;;;62.17;;
22425;SDS011;11380;50.822;15.790;2023-06-26T11:06:24;79.03;;;60.25;;
22425;SDS011;11380;50.822;15.790;2023-06-26T11:17:07;78.33;;;60.60;;
22425;SDS011;11380;50.822;15.790;2023-06-26T11:22:15;80.83;;;61.05;;
22425;SDS011;11380;50.822;15.790;2023-06-26T11:27:22;78.33;;;60.67;;
22425;SDS011;11380;50.822;15.790;2023-06-26T11:32:31;79.00;;;60.60;;
22425;SDS011;11380;50.822;15.790;2023-06-26T11:37:38;79.07;;;60.90;;
22425;SDS011;11380;50.822;15.790;2023-06-26T11:42:46;79.30;;;60.63;;
22425;SDS011;11380;50.822;15.790;2023-06-26T11:47:54;79.00;;;60.60;;
22425;SDS011;11380;50.822;15.790;2023-06-26T11:53:03;79.30;;;60.90;;
22425;SDS011;11380;50.822;15.790;2023-06-26T11:58:12;80.47;;;61.47;;
22425;SDS011;11380;50.822;15.790;2023-06-26T12:03:19;80.40;;;60.90;;
22425;SDS011;11380;50.822;15.790;2023-06-26T12:08:29;79.92;;;61.05;;
22425;SDS011;11380;50.822;15.790;2023-06-26T12:13:36;81.10;;;61.10;;
22425;SDS011;11380;50.822;15.790;2023-06-26T12:18:43;80.43;;;60.57;;
22425;SDS011;11380;50.822;15.790;2023-06-26T12:23:57;79.22;;;61.08;;
22425;SDS011;11380;50.822;15.790;2023-06-26T12:29:09;81.08;;;60.67;;
22425;SDS011;11380;50.822;15.790;2023-06-26T12:34:21;79.93;;;60.90;;
22425;SDS011;11380;50.822;15.790;2023-06-26T12:39:47;79.75;;;60.95;;
22425;SDS011;11380;50.822;15.790;2023-06-26T12:45:10;81.10;;;61.25;;
22425;SDS011;11380;50.822;15.790;2023-06-26T12:50:19;80.43;;;61.10;;
22425;SDS011;11380;50.822;15.790;2023-06-26T12:55:26;79.40;;;61.30;;
22425;SDS011;11380;50.822;15.790;2023-06-26T13:00:33;79.82;;;61.35;;
22425;SDS011;11380;50.822;15.790;2023-06-26T13:05:42;80.65;;;61.15;;
22425;SDS011;11380;50.822;15.790;2023-06-26T13:10:49;80.77;;;61.77;;
22425;SDS011;11380;50.822;15.790;2023-06-26T13:15:56;83.57;;;61.27;;
22425;SDS011;11380;50.822;15.790;2023-06-26T13:21:04;81.03;;;61.67;;
22425;SDS011;11380;50.822;15.790;2023-06-26T13:26:11;81.00;;;61.60;;
22425;SDS011;11380;50.822;15.790;2023-06-26T13:31:20;80.93;;;61.80;;
22425;SDS011;11380;50.822;15.790;2023-06-26T13:36:29;80.83;;;61.50;;
22425;SDS011;11380;50.822;15.790;2023-06-26T13:41:38;80.70;;;61.42;;
22425;SDS011;11380;50.822;15.790;2023-06-26T13:46:45;80.37;;;61.40;;
22425;SDS011;11380;50.822;15.790;2023-06-26T13:51:52;81.63;;;62.70;;
22425;SDS011;11380;50.822;15.790;2023-06-26T13:56:59;88.10;;;63.17;;
22425;SDS011;11380;50.822;15.790;2023-06-26T14:02:09;83.15;;;61.85;;
22425;SDS011;11380;50.822;15.790;2023-06-26T14:07:16;87.47;;;63.67;;
22425;SDS011;11380;50.822;15.790;2023-06-26T14:12:24;80.57;;;61.40;;
22425;SDS011;11380;50.822;15.790;2023-06-26T14:17:31;80.13;;;61.70;;
22425;SDS011;11380;50.822;15.790;2023-06-26T14:22:39;80.87;;;62.00;;
22425;SDS011;11380;50.822;15.790;2023-06-26T14:27:47;82.02;;;61.88;;
22425;SDS011;11380;50.822;15.790;2023-06-26T14:32:54;80.28;;;61.50;;
22425;SDS011;11380;50.822;15.790;2023-06-26T14:38:02;79.40;;;61.23;;
22425;SDS011;11380;50.822;15.790;2023-06-26T14:43:09;82.70;;;62.17;;
22425;SDS011;11380;50.822;15.790;2023-06-26T14:48:16;79.57;;;61.53;;
22425;SDS011;11380;50.822;15.790;2023-06-26T14:53:24;79.45;;;61.10;;
22425;SDS011;11380;50.822;15.790;2023-06-26T14:58:31;79.47;;;61.10;;
22425;SDS011;11380;50.822;15.790;2023-06-26T15:03:39;79.75;;;61.00;;
22425;SDS011;11380;50.822;15.790;2023-06-26T15:08:47;79.97;;;61.73;;
22425;SDS011;11380;50.822;15.790;2023-06-26T15:13:55;80.77;;;61.27;;
22425;SDS011;11380;50.822;15.790;2023-06-26T15:19:03;81.55;;;61.18;;
22425;SDS011;11380;50.822;15.790;2023-06-26T15:24:10;80.93;;;61.07;;
22425;SDS011;11380;50.822;15.790;2023-06-26T15:29:17;79.67;;;61.28;;
22425;SDS011;11380;50.822;15.790;2023-06-26T15:34:24;79.27;;;61.27;;
22425;SDS011;11380;50.822;15.790;2023-06-26T15:39:32;79.53;;;61.25;;
22425;SDS011;11380;50.822;15.790;2023-06-26T15:44:40;78.63;;;60.73;;
22425;SDS011;11380;50.822;15.790;2023-06-26T15:49:47;80.13;;;61.13;;
22425;SDS011;11380;50.822;15.790;2023-06-26T15:54:54;80.37;;;60.93;;
22425;SDS011;11380;50.822;15.790;2023-06-26T16:00:02;78.13;;;60.33;;
22425;SDS011;11380;50.822;15.790;2023-06-26T16:05:11;80.60;;;61.13;;
22425;SDS011;11380;50.822;15.790;2023-06-26T16:10:19;79.45;;;60.43;;
22425;SDS011;11380;50.822;15.790;2023-06-26T16:15:26;79.13;;;61.87;;
22425;SDS011;11380;50.822;15.790;2023-06-26T16:20:32;80.20;;;61.13;;
22425;SDS011;11380;50.822;15.790;2023-06-26T16:25:39;82.00;;;60.47;;
22425;SDS011;11380;50.822;15.790;2023-06-26T16:30:47;78.85;;;61.05;;
22425;SDS011;11380;50.822;15.790;2023-06-26T16:35:55;78.77;;;60.90;;
22425;SDS011;11380;50.822;15.790;2023-06-26T16:41:02;79.47;;;61.37;;
22425;SDS011;11380;50.822;15.790;2023-06-26T16:46:09;81.87;;;61.68;;
22425;SDS011;11380;50.822;15.790;2023-06-26T16:51:16;84.87;;;61.42;;
22425;SDS011;11380;50.822;15.790;2023-06-26T16:56:23;80.17;;;61.58;;
22425;SDS011;11380;50.822;15.790;2023-06-26T17:01:30;78.70;;;61.10;;
22425;SDS011;11380;50.822;15.790;2023-06-26T17:06:37;78.70;;;61.50;;
22425;SDS011;11380;50.822;15.790;2023-06-26T17:11:44;78.90;;;60.90;;
22425;SDS011;11380;50.822;15.790;2023-06-26T17:16:50;83.70;;;61.73;;
22425;SDS011;11380;50.822;15.790;2023-06-26T17:22:06;79.90;;;61.37;;
22425;SDS011;11380;50.822;15.790;2023-06-26T17:27:13;79.77;;;62.10;;
22425;SDS011;11380;50.822;15.790;2023-06-26T17:32:22;80.05;;;62.10;;
22425;SDS011;11380;50.822;15.790;2023-06-26T17:37:29;80.00;;;61.03;;
22425;SDS011;11380;50.822;15.790;2023-06-26T17:42:36;78.90;;;60.77;;
22425;SDS011;11380;50.822;15.790;2023-06-26T17:47:45;80.10;;;61.60;;
22425;SDS011;11380;50.822;15.790;2023-06-26T17:52:52;79.85;;;60.95;;
22425;SDS011;11380;50.822;15.790;2023-06-26T17:57:59;78.87;;;61.23;;
22425;SDS011;11380;50.822;15.790;2023-06-26T18:03:06;82.57;;;62.17;;
22425;SDS011;11380;50.822;15.790;2023-06-26T18:08:13;79.98;;;61.54;;
22425;SDS011;11380;50.822;15.790;2023-06-26T18:13:20;81.37;;;62.08;;
22425;SDS011;11380;50.822;15.790;2023-06-26T18:18:31;82.70;;;62.27;;
22425;SDS011;11380;50.822;15.790;2023-06-26T18:23:38;80.37;;;62.00;;
22425;SDS011;11380;50.822;15.790;2023-06-26T18:28:45;79.70;;;61.03;;
22425;SDS011;11380;50.822;15.790;2023-06-26T18:33:54;79.17;;;60.20;;
22425;SDS011;11380;50.822;15.790;2023-06-26T18:39:02;80.33;;;61.07;;
22425;SDS011;11380;50.822;15.790;2023-06-26T18:44:12;83.27;;;60.27;;
22425;SDS011;11380;50.822;15.790;2023-06-26T18:49:19;76.77;;;57.45;;
22425;SDS011;11380;50.822;15.790;2023-06-26T18:54:27;76.07;;;57.30;;
22425;SDS011;11380;50.822;15.790;2023-06-26T18:59:35;74.80;;;56.67;;
22425;SDS011;11380;50.822;15.790;2023-06-26T19:04:43;73.80;;;56.60;;
22425;SDS011;11380;50.822;15.790;2023-06-26T19:09:51;71.75;;;56.10;;
22425;SDS011;11380;50.822;15.790;2023-06-26T19:15:00;75.60;;;56.43;;
22425;SDS011;11380;50.822;15.790;2023-06-26T19:20:08;71.47;;;56.37;;
22425;SDS011;11380;50.822;15.790;2023-06-26T19:25:16;72.13;;;56.60;;
22425;SDS011;11380;50.822;15.790;2023-06-26T19:30:24;72.35;;;56.53;;
22425;SDS011;11380;50.822;15.790;2023-06-26T19:35:31;79.60;;;58.67;;
22425;SDS011;11380;50.822;15.790;2023-06-26T19:40:39;74.57;;;57.87;;
22425;SDS011;11380;50.822;15.790;2023-06-26T19:45:49;74.97;;;57.43;;
22425;SDS011;11380;50.822;15.790;2023-06-26T19:50:58;75.20;;;57.57;;
22425;SDS011;11380;50.822;15.790;2023-06-26T19:56:07;73.80;;;57.93;;
22425;SDS011;11380;50.822;15.790;2023-06-26T20:01:14;76.38;;;57.72;;
22425;SDS011;11380;50.822;15.790;2023-06-26T20:06:22;73.78;;;57.35;;
22425;SDS011;11380;50.822;15.790;2023-06-26T20:11:32;74.57;;;57.20;;
22425;SDS011;11380;50.822;15.790;2023-06-26T20:16:40;76.87;;;57.90;;
22425;SDS011;11380;50.822;15.790;2023-06-26T20:21:47;71.87;;;56.60;;
22425;SDS011;11380;50.822;15.790;2023-06-26T20:26:55;73.03;;;57.60;;
22425;SDS011;11380;50.822;15.790;2023-06-26T20:32:02;71.97;;;58.10;;
22425;SDS011;11380;50.822;15.790;2023-06-26T20:37:10;70.90;;;56.73;;
22425;SDS011;11380;50.822;15.790;2023-06-26T20:42:17;72.60;;;56.77;;
22425;SDS011;11380;50.822;15.790;2023-06-26T20:47:24;70.70;;;56.87;;
22425;SDS011;11380;50.822;15.790;2023-06-26T20:52:34;79.57;;;57.23;;
22425;SDS011;11380;50.822;15.790;2023-06-26T20:57:46;70.53;;;57.17;;
22425;SDS011;11380;50.822;15.790;2023-06-26T21:02:53;73.10;;;57.87;;
22425;SDS011;11380;50.822;15.790;2023-06-26T21:08:01;71.10;;;57.30;;
22425;SDS011;11380;50.822;15.790;2023-06-26T21:13:09;69.83;;;56.40;;
22425;SDS011;11380;50.822;15.790;2023-06-26T21:18:17;69.63;;;56.80;;
22425;SDS011;11380;50.822;15.790;2023-06-26T21:23:25;71.72;;;56.85;;
22425;SDS011;11380;50.822;15.790;2023-06-26T21:28:31;70.30;;;56.47;;
22425;SDS011;11380;50.822;15.790;2023-06-26T21:33:38;70.90;;;56.83;;
22425;SDS011;11380;50.822;15.790;2023-06-26T21:38:45;69.57;;;56.63;;
22425;SDS011;11380;50.822;15.790;2023-06-26T21:43:52;69.47;;;56.30;;
22425;SDS011;11380;50.822;15.790;2023-06-26T21:49:01;70.47;;;56.57;;
22425;SDS011;11380;50.822;15.790;2023-06-26T21:54:10;70.90;;;56.77;;
22425;SDS011;11380;50.822;15.790;2023-06-26T21:59:18;72.37;;;56.88;;
22425;SDS011;11380;50.822;15.790;2023-06-26T22:04:25;70.80;;;57.97;;
22425;SDS011;11380;50.822;15.790;2023-06-26T22:09:32;70.83;;;57.27;;
22425;SDS011;11380;50.822;15.790;2023-06-26T22:14:40;71.20;;;57.43;;
22425;SDS011;11380;50.822;15.790;2023-06-26T22:19:47;69.33;;;56.80;;
22425;SDS011;11380;50.822;15.790;2023-06-26T22:24:54;72.12;;;57.85;;
22425;SDS011;11380;50.822;15.790;2023-06-26T22:30:03;69.93;;;57.13;;
22425;SDS011;11380;50.822;15.790;2023-06-26T22:35:11;72.00;;;57.33;;
22425;SDS011;11380;50.822;15.790;2023-06-26T22:40:19;70.08;;;57.27;;
22425;SDS011;11380;50.822;15.790;2023-06-26T22:45:26;72.10;;;58.07;;
22425;SDS011;11380;50.822;15.790;2023-06-26T22:50:35;71.47;;;58.08;;
22425;SDS011;11380;50.822;15.790;2023-06-26T22:55:44;71.53;;;57.30;;
22425;SDS011;11380;50.822;15.790;2023-06-26T23:00:53;70.30;;;57.70;;
22425;SDS011;11380;50.822;15.790;2023-06-26T23:06:01;69.75;;;57.05;;
22425;SDS011;11380;50.822;15.790;2023-06-26T23:11:10;71.98;;;57.70;;
22425;SDS011;11380;50.822;15.790;2023-06-26T23:16:16;71.20;;;57.50;;
22425;SDS011;11380;50.822;15.790;2023-06-26T23:21:24;72.12;;;58.15;;
22425;SDS011;11380;50.822;15.790;2023-06-26T23:26:31;75.70;;;57.80;;
22425;SDS011;11380;50.822;15.790;2023-06-26T23:31:39;71.37;;;57.43;;
22425;SDS011;11380;50.822;15.790;2023-06-26T23:36:47;68.92;;;56.33;;
22425;SDS011;11380;50.822;15.790;2023-06-26T23:41:55;69.63;;;57.57;;
22425;SDS011;11380;50.822;15.790;2023-06-26T23:47:04;69.57;;;57.23;;
22425;SDS011;11380;50.822;15.790;2023-06-26T23:52:12;69.97;;;56.97;;
22425;SDS011;11380;50.822;15.790;2023-06-26T23:57:19;70.45;;;57.00;;
